createdAt,value
2023-05-13T00:02:20.713Z,57.04
2023-05-13T00:04:44.453Z,57.05
2023-05-13T00:07:07.996Z,57.51
2023-05-13T00:09:31.551Z,57.23
2023-05-13T00:11:56.481Z,56.65
2023-05-13T00:14:20.044Z,57.56
2023-05-13T00:16:43.730Z,57.36
2023-05-13T00:19:07.612Z,57.78
2023-05-13T00:21:32.234Z,57.54
2023-05-13T00:23:55.917Z,57.08
2023-05-13T00:26:19.487Z,59.18
2023-05-13T00:28:46.494Z,59.51
2023-05-13T00:31:11.585Z,59.35
2023-05-13T00:33:35.244Z,58.58
2023-05-13T00:35:59.198Z,58.54
2023-05-13T00:38:22.812Z,58.18
2023-05-13T00:40:47.493Z,58.70
2023-05-13T00:43:11.304Z,59.17
2023-05-13T00:45:38.548Z,58.92
2023-05-13T00:48:02.633Z,58.90
2023-05-13T00:50:26.424Z,58.93
2023-05-13T00:52:52.308Z,58.45
2023-05-13T00:55:16.080Z,59.29
2023-05-13T00:57:41.210Z,58.61
2023-05-13T01:00:06.889Z,59.48
2023-05-13T01:02:37.487Z,58.44
2023-05-13T01:05:11.170Z,59.72
2023-05-13T01:07:44.436Z,59.87
2023-05-13T01:10:17.330Z,59.64
2023-05-13T01:12:43.839Z,60.86
2023-05-13T01:15:11.546Z,60.79
2023-05-13T01:17:46.137Z,61.20
2023-05-13T01:20:11.635Z,60.31
2023-05-13T01:22:36.996Z,59.68
2023-05-13T01:25:01.731Z,59.56
2023-05-13T01:27:25.978Z,61.47
2023-05-13T01:29:50.304Z,60.49
2023-05-13T01:32:20.510Z,59.68
2023-05-13T01:34:45.740Z,61.11
2023-05-13T01:37:09.739Z,60.91
2023-05-13T01:39:38.405Z,60.59
2023-05-13T01:42:07.666Z,59.80
2023-05-13T01:44:31.419Z,59.78
2023-05-13T01:46:57.162Z,59.64
2023-05-13T01:49:21.391Z,61.64
2023-05-13T01:51:44.932Z,59.83
2023-05-13T01:54:08.529Z,59.42
2023-05-13T01:56:37.398Z,59.91
2023-05-13T01:59:01.018Z,59.36
2023-05-13T02:01:24.626Z,59.50
2023-05-13T02:03:49.701Z,62.65
2023-05-13T02:06:13.342Z,59.59
2023-05-13T02:08:37.392Z,59.84
2023-05-13T02:11:02.014Z,61.38
2023-05-13T02:13:28.013Z,60.88
2023-05-13T02:15:51.651Z,62.05
2023-05-13T02:18:15.924Z,60.08
2023-05-13T02:20:39.474Z,59.83
2023-05-13T02:23:03.117Z,61.27
2023-05-13T02:25:26.630Z,62.12
2023-05-13T02:27:50.377Z,63.50
2023-05-13T02:30:16.026Z,60.53
2023-05-13T02:32:43.960Z,59.91
2023-05-13T02:35:08.307Z,64.24
2023-05-13T02:37:32.140Z,63.74
2023-05-13T02:39:59.139Z,62.84
2023-05-13T02:42:22.766Z,60.94
2023-05-13T02:44:46.318Z,61.11
2023-05-13T02:47:12.548Z,61.92
2023-05-13T02:49:36.201Z,62.61
2023-05-13T02:52:00.254Z,62.72
2023-05-13T02:54:31.060Z,62.46
2023-05-13T02:56:54.747Z,65.56
2023-05-13T02:59:18.355Z,61.88
2023-05-13T03:01:42.154Z,62.38
2023-05-13T03:04:07.212Z,62.22
2023-05-13T03:06:31.690Z,61.40
2023-05-13T03:08:55.278Z,61.97
2023-05-13T03:11:18.942Z,63.08
2023-05-13T03:13:42.475Z,61.69
2023-05-13T03:16:07.113Z,63.79
2023-05-13T03:18:32.822Z,64.27
2023-05-13T03:20:58.503Z,65.47
2023-05-13T03:23:22.793Z,64.71
2023-05-13T03:25:48.903Z,65.45
2023-05-13T03:28:12.486Z,65.71
2023-05-13T03:30:39.534Z,64.41
2023-05-13T03:33:07.709Z,67.35
2023-05-13T03:35:31.281Z,66.05
2023-05-13T03:37:56.261Z,65.90
2023-05-13T03:40:20.788Z,66.63
2023-05-13T03:42:46.636Z,65.71
2023-05-13T03:45:11.797Z,67.02
2023-05-13T03:47:39.234Z,65.79
2023-05-13T03:50:07.701Z,64.86
2023-05-13T03:52:37.170Z,66.59
2023-05-13T03:55:02.224Z,65.80
2023-05-13T03:57:25.908Z,64.38
2023-05-13T03:59:49.661Z,65.40
2023-05-13T04:02:13.512Z,65.56
2023-05-13T04:04:37.176Z,66.49
2023-05-13T04:07:00.745Z,66.23
2023-05-13T04:09:24.368Z,64.83
2023-05-13T04:11:49.949Z,66.74
2023-05-13T04:14:13.523Z,66.19
2023-05-13T04:16:40.057Z,65.26
2023-05-13T04:19:04.191Z,66.25
2023-05-13T04:21:28.728Z,64.72
2023-05-13T04:23:52.351Z,64.25
2023-05-13T04:26:15.908Z,63.47
2023-05-13T04:28:41.198Z,63.58
2023-05-13T04:31:05.139Z,61.80
2023-05-13T04:33:31.790Z,61.68
2023-05-13T04:35:55.806Z,60.66
2023-05-13T04:38:19.971Z,59.89
2023-05-13T04:40:44.756Z,60.72
2023-05-13T04:43:11.109Z,60.05
2023-05-13T04:45:49.246Z,59.87
2023-05-13T04:48:13.524Z,59.22
2023-05-13T04:50:38.353Z,58.98
2023-05-13T04:53:02.523Z,57.99
2023-05-13T04:55:27.787Z,58.01
2023-05-13T04:57:52.942Z,57.83
2023-05-13T05:00:17.921Z,56.44
2023-05-13T05:02:44.622Z,56.12
2023-05-13T05:05:09.070Z,55.86
2023-05-13T05:07:33.013Z,55.56
2023-05-13T05:09:57.059Z,56.75
2023-05-13T05:12:21.946Z,55.62
2023-05-13T05:14:45.606Z,54.64
2023-05-13T05:17:09.517Z,54.62
2023-05-13T05:19:34.801Z,53.92
2023-05-13T05:21:58.924Z,55.50
2023-05-13T05:24:22.439Z,53.92
2023-05-13T05:26:46.047Z,53.21
2023-05-13T05:29:09.878Z,52.22
2023-05-13T05:31:33.635Z,52.07
2023-05-13T05:34:01.003Z,52.29
2023-05-13T05:36:26.112Z,51.55
2023-05-13T05:38:49.651Z,50.86
2023-05-13T05:41:14.583Z,52.02
2023-05-13T05:43:38.315Z,50.80
2023-05-13T05:46:01.941Z,50.50
2023-05-13T05:48:25.626Z,48.69
2023-05-13T05:50:50.057Z,47.87
2023-05-13T05:53:22.498Z,47.95
2023-05-13T05:55:46.293Z,46.98
2023-05-13T05:58:16.557Z,47.14
2023-05-13T06:00:40.673Z,45.15
2023-05-13T06:03:04.619Z,44.73
2023-05-13T06:05:28.632Z,43.10
2023-05-13T06:07:52.160Z,43.45
2023-05-13T06:10:17.425Z,41.02
2023-05-13T06:12:41.949Z,42.12
2023-05-13T06:15:10.844Z,40.93
2023-05-13T06:17:34.386Z,40.65
2023-05-13T06:19:58.981Z,38.69
2023-05-13T06:22:22.595Z,38.48
2023-05-13T06:24:46.153Z,38.61
2023-05-13T06:27:12.190Z,37.73
2023-05-13T06:29:35.777Z,37.06
2023-05-13T06:31:59.304Z,36.59
2023-05-13T06:34:22.973Z,35.27
2023-05-13T06:36:46.619Z,33.51
2023-05-13T06:39:11.302Z,34.81
2023-05-13T06:41:36.090Z,33.38
2023-05-13T06:44:07.392Z,33.49
2023-05-13T06:46:35.741Z,35.01
2023-05-13T06:48:59.460Z,35.29
2023-05-13T06:51:23.202Z,33.27
2023-05-13T06:53:47.398Z,32.55
2023-05-13T06:56:11.259Z,31.18
2023-05-13T06:58:34.861Z,33.57
2023-05-13T07:01:00.513Z,31.28
2023-05-13T07:03:24.254Z,31.43
2023-05-13T07:05:48.230Z,33.05
2023-05-13T07:08:17.772Z,34.93
2023-05-13T07:10:41.364Z,33.66
2023-05-13T07:13:05.391Z,31.97
2023-05-13T07:15:29.224Z,32.62
2023-05-13T07:17:54.173Z,31.83
2023-05-13T07:20:22.428Z,31.66
2023-05-13T07:22:46.219Z,30.73
2023-05-13T07:25:11.005Z,32.14
2023-05-13T07:27:34.570Z,34.63
2023-05-13T07:29:58.391Z,32.18
2023-05-13T07:32:21.934Z,31.98
2023-05-13T07:34:46.874Z,32.65
2023-05-13T07:37:10.461Z,33.61
2023-05-13T07:39:34.044Z,32.70
2023-05-13T07:41:57.633Z,33.20
2023-05-13T07:44:21.349Z,29.65
2023-05-13T07:46:44.941Z,30.41
2023-05-13T07:49:09.186Z,29.94
2023-05-13T07:51:34.309Z,28.59
2023-05-13T07:53:58.485Z,28.72
2023-05-13T07:56:22.013Z,30.21
2023-05-13T07:58:46.125Z,28.27
2023-05-13T08:01:09.707Z,28.67
2023-05-13T08:03:33.541Z,28.40
2023-05-13T08:05:57.231Z,27.92
2023-05-13T08:08:22.362Z,27.46
2023-05-13T08:10:45.867Z,27.45
2023-05-13T08:13:09.448Z,28.51
2023-05-13T08:15:32.974Z,28.08
2023-05-13T08:17:56.597Z,28.22
2023-05-13T08:20:20.242Z,27.50
2023-05-13T08:22:43.935Z,27.13
2023-05-13T08:25:11.236Z,29.38
2023-05-13T08:27:36.007Z,29.39
2023-05-13T08:29:59.538Z,28.96
2023-05-13T08:32:23.173Z,28.47
2023-05-13T08:34:46.753Z,29.20
2023-05-13T08:37:10.342Z,28.14
2023-05-13T08:39:34.376Z,30.06
2023-05-13T08:42:00.279Z,29.68
2023-05-13T08:44:29.011Z,29.26
2023-05-13T08:47:03.769Z,30.48
2023-05-13T08:49:27.552Z,28.44
2023-05-13T08:51:51.058Z,30.78
2023-05-13T08:54:16.644Z,28.85
2023-05-13T08:56:40.210Z,29.60
2023-05-13T08:59:05.251Z,29.63
2023-05-13T09:01:29.798Z,28.31
2023-05-13T09:03:59.861Z,28.07
2023-05-13T09:06:23.453Z,28.63
2023-05-13T09:08:47.404Z,28.42
2023-05-13T09:11:11.103Z,27.68
2023-05-13T09:13:34.721Z,29.04
2023-05-13T09:15:59.986Z,27.16
2023-05-13T09:18:23.659Z,28.88
2023-05-13T09:20:48.163Z,27.67
2023-05-13T09:23:12.517Z,26.86
2023-05-13T09:25:38.610Z,27.50
2023-05-13T09:28:04.040Z,27.47
2023-05-13T09:30:29.329Z,28.55
2023-05-13T09:33:10.364Z,27.98
2023-05-13T09:35:35.794Z,29.72
2023-05-13T09:37:59.873Z,27.76
2023-05-13T09:40:23.790Z,27.84
2023-05-13T09:42:48.089Z,27.14
2023-05-13T09:45:13.617Z,27.88
2023-05-13T09:47:37.710Z,27.40
2023-05-13T09:50:04.665Z,26.86
2023-05-13T09:52:28.213Z,26.76
2023-05-13T09:54:51.775Z,27.81
2023-05-13T09:57:16.384Z,26.45
2023-05-13T09:59:39.952Z,27.84
2023-05-13T10:02:07.841Z,27.25
2023-05-13T10:04:32.057Z,27.36
2023-05-13T10:06:58.639Z,27.23
2023-05-13T10:09:23.325Z,26.39
2023-05-13T10:11:48.627Z,27.12
2023-05-13T10:14:12.704Z,25.30
2023-05-13T10:16:36.644Z,25.37
2023-05-13T10:19:00.654Z,24.49
2023-05-13T10:21:24.641Z,24.47
2023-05-13T10:23:51.908Z,23.90
2023-05-13T10:26:16.060Z,23.78
2023-05-13T10:28:40.271Z,25.18
2023-05-13T10:31:04.297Z,24.64
2023-05-13T10:33:29.656Z,24.69
2023-05-13T10:36:07.043Z,23.92
2023-05-13T10:38:52.073Z,23.87
2023-05-13T10:41:36.883Z,24.34
2023-05-13T10:44:00.951Z,24.42
2023-05-13T10:46:25.495Z,23.91
2023-05-13T10:48:51.068Z,23.13
2023-05-13T10:51:17.355Z,23.90
2023-05-13T10:53:48.968Z,22.25
2023-05-13T10:56:13.988Z,22.33
2023-05-13T10:58:38.415Z,22.26
2023-05-13T11:01:19.016Z,22.46
2023-05-13T11:03:43.509Z,22.99
2023-05-13T11:06:17.704Z,22.16
2023-05-13T11:08:43.208Z,21.65
2023-05-13T11:11:27.624Z,21.92
2023-05-13T11:13:52.457Z,24.58
2023-05-13T11:16:16.084Z,21.94
2023-05-13T11:18:39.929Z,23.22
2023-05-13T11:21:05.785Z,22.76
2023-05-13T11:23:29.551Z,21.93
2023-05-13T11:26:12.356Z,23.31
2023-05-13T11:28:59.552Z,23.35
2023-05-13T11:31:23.753Z,22.87
2023-05-13T11:34:12.582Z,21.88
2023-05-13T11:36:38.123Z,22.00
2023-05-13T11:39:11.606Z,21.94
2023-05-13T11:41:36.555Z,21.17
2023-05-13T11:44:03.983Z,22.46
2023-05-13T11:46:27.827Z,22.03
2023-05-13T11:48:51.551Z,21.16
2023-05-13T11:51:19.772Z,22.09
2023-05-13T11:53:43.365Z,22.52
2023-05-13T11:56:11.628Z,21.82
2023-05-13T11:58:35.301Z,21.04
2023-05-13T12:01:00.447Z,21.31
2023-05-13T12:03:24.080Z,22.17
2023-05-13T12:05:49.307Z,22.01
2023-05-13T12:08:13.516Z,21.44
2023-05-13T12:10:39.117Z,22.11
2023-05-13T12:13:02.950Z,22.35
2023-05-13T12:15:26.781Z,21.02
2023-05-13T12:17:52.272Z,21.04
2023-05-13T12:20:17.688Z,20.30
2023-05-13T12:22:54.082Z,20.24
2023-05-13T12:25:44.947Z,22.37
2023-05-13T12:28:10.705Z,21.08
2023-05-13T12:30:35.544Z,20.96
2023-05-13T12:33:02.014Z,21.26
2023-05-13T12:35:25.639Z,21.81
2023-05-13T12:38:04.454Z,21.82
2023-05-13T12:40:28.684Z,23.66
2023-05-13T12:42:52.226Z,22.72
2023-05-13T12:45:15.873Z,21.48
2023-05-13T12:47:52.076Z,21.52
2023-05-13T12:50:17.814Z,22.29
2023-05-13T12:52:41.393Z,22.45
2023-05-13T12:55:05.672Z,23.35
2023-05-13T12:57:32.139Z,21.46
2023-05-13T12:59:56.025Z,21.41
2023-05-13T13:02:19.541Z,21.68
2023-05-13T13:04:43.174Z,23.81
2023-05-13T13:07:12.718Z,22.07
2023-05-13T13:09:36.892Z,22.45
2023-05-13T13:12:00.414Z,22.09
2023-05-13T13:14:26.189Z,22.90
2023-05-13T13:16:49.830Z,20.48
2023-05-13T13:19:13.570Z,22.50
2023-05-13T13:21:37.209Z,21.54
2023-05-13T13:24:02.195Z,22.89
2023-05-13T13:26:25.760Z,21.94
2023-05-13T13:28:49.353Z,21.70
2023-05-13T13:31:12.929Z,21.65
2023-05-13T13:33:36.555Z,22.84
2023-05-13T13:36:00.364Z,22.98
2023-05-13T13:38:23.984Z,21.34
2023-05-13T13:40:48.891Z,22.07
2023-05-13T13:43:12.519Z,23.06
2023-05-13T13:45:36.590Z,21.98
2023-05-13T13:48:00.858Z,22.44
2023-05-13T13:50:24.605Z,23.14
2023-05-13T13:52:48.278Z,22.94
2023-05-13T13:55:12.577Z,22.27
2023-05-13T13:57:37.588Z,22.28
2023-05-13T14:00:01.114Z,22.01
2023-05-13T14:02:24.836Z,22.06
2023-05-13T14:04:48.617Z,23.41
2023-05-13T14:07:12.324Z,22.76
2023-05-13T14:09:35.920Z,23.63
2023-05-13T14:11:59.553Z,23.05
2023-05-13T14:14:24.840Z,22.73
2023-05-13T14:16:48.494Z,22.84
2023-05-13T14:19:13.237Z,23.11
2023-05-13T14:21:36.958Z,24.68
2023-05-13T14:24:00.653Z,22.40
2023-05-13T14:26:24.313Z,23.00
2023-05-13T14:28:47.925Z,23.63
2023-05-13T14:31:13.154Z,22.87
2023-05-13T14:33:37.153Z,23.15
2023-05-13T14:36:00.834Z,23.57
2023-05-13T14:38:24.390Z,24.12
2023-05-13T14:40:48.174Z,23.60
2023-05-13T14:43:11.754Z,23.39
2023-05-13T14:45:36.994Z,24.14
2023-05-13T14:48:01.976Z,23.61
2023-05-13T14:50:25.657Z,24.53
2023-05-13T14:52:49.157Z,23.07
2023-05-13T14:55:13.023Z,23.66
2023-05-13T14:57:36.608Z,24.03
2023-05-13T15:00:00.353Z,23.85
2023-05-13T15:02:23.974Z,24.09
2023-05-13T15:04:50.289Z,24.08
2023-05-13T15:07:14.002Z,24.56
2023-05-13T15:09:37.566Z,25.45
2023-05-13T15:12:01.129Z,26.61
2023-05-13T15:14:26.224Z,25.56
2023-05-13T15:16:49.915Z,24.87
2023-05-13T15:19:13.720Z,24.97
2023-05-13T15:21:39.546Z,25.01
2023-05-13T15:24:03.143Z,24.34
2023-05-13T15:26:26.786Z,25.81
2023-05-13T15:28:50.378Z,24.60
2023-05-13T15:31:14.020Z,24.88
2023-05-13T15:33:37.669Z,25.04
2023-05-13T15:36:01.449Z,24.85
2023-05-13T15:38:26.760Z,25.69
2023-05-13T15:40:50.538Z,25.11
2023-05-13T15:43:14.242Z,25.28
2023-05-13T15:45:40.088Z,25.32
2023-05-13T15:48:03.837Z,25.51
2023-05-13T15:50:27.519Z,25.90
2023-05-13T15:52:51.331Z,25.76
2023-05-13T15:55:16.263Z,25.30
2023-05-13T15:57:40.899Z,25.74
2023-05-13T16:00:05.091Z,27.06
2023-05-13T16:02:29.681Z,28.18
2023-05-13T16:04:53.233Z,29.17
2023-05-13T16:07:16.904Z,29.54
2023-05-13T16:09:42.434Z,30.12
2023-05-13T16:12:08.300Z,30.63
2023-05-13T16:14:32.141Z,30.30
2023-05-13T16:16:55.983Z,30.57
2023-05-13T16:19:19.553Z,30.43
2023-05-13T16:21:43.182Z,30.99
2023-05-13T16:24:07.671Z,31.52
2023-05-13T16:26:31.317Z,32.01
2023-05-13T16:28:56.253Z,31.20
2023-05-13T16:31:19.913Z,30.64
2023-05-13T16:33:43.422Z,31.63
2023-05-13T16:36:07.806Z,32.58
2023-05-13T16:38:34.935Z,34.28
2023-05-13T16:40:58.589Z,34.71
2023-05-13T16:43:22.257Z,34.87
2023-05-13T16:45:47.317Z,35.14
2023-05-13T16:48:10.940Z,35.83
2023-05-13T16:50:34.637Z,35.43
2023-05-13T16:52:58.441Z,35.80
2023-05-13T16:55:22.584Z,37.32
2023-05-13T16:57:46.869Z,37.81
2023-05-13T17:00:12.135Z,37.64
2023-05-13T17:02:37.208Z,37.31
2023-05-13T17:05:00.837Z,37.39
2023-05-13T17:07:24.440Z,38.77
2023-05-13T17:09:48.097Z,36.86
2023-05-13T17:12:12.743Z,37.38
2023-05-13T17:14:36.361Z,36.59
2023-05-13T17:16:59.958Z,36.37
2023-05-13T17:19:24.940Z,36.82
2023-05-13T17:21:48.577Z,36.56
2023-05-13T17:24:12.159Z,37.16
2023-05-13T17:26:37.635Z,37.11
2023-05-13T17:29:02.291Z,37.46
2023-05-13T17:31:25.993Z,36.87
2023-05-13T17:33:49.735Z,36.41
2023-05-13T17:36:15.120Z,35.96
2023-05-13T17:38:39.140Z,36.01
2023-05-13T17:41:03.159Z,36.07
2023-05-13T17:43:27.130Z,36.02
2023-05-13T17:45:50.672Z,35.60
2023-05-13T17:48:14.589Z,35.62
2023-05-13T17:50:38.305Z,36.34
2023-05-13T17:53:03.356Z,35.32
2023-05-13T17:55:27.661Z,36.79
2023-05-13T17:57:51.279Z,37.21
2023-05-13T18:00:16.343Z,36.31
2023-05-13T18:02:40.417Z,35.83
2023-05-13T18:05:04.124Z,37.06
2023-05-13T18:07:27.788Z,35.89
2023-05-13T18:09:52.798Z,36.47
2023-05-13T18:12:16.423Z,36.71
2023-05-13T18:14:39.978Z,36.80
2023-05-13T18:17:03.639Z,37.85
2023-05-13T18:19:27.742Z,37.07
2023-05-13T18:21:51.473Z,37.22
2023-05-13T18:24:15.000Z,37.60
2023-05-13T18:26:40.111Z,38.18
2023-05-13T18:29:04.023Z,38.41
2023-05-13T18:31:27.707Z,37.99
2023-05-13T18:33:51.307Z,37.66
2023-05-13T18:36:14.966Z,38.25
2023-05-13T18:38:39.590Z,37.97
2023-05-13T18:41:03.704Z,37.81
2023-05-13T18:43:28.678Z,38.06
2023-05-13T18:45:52.355Z,39.15
2023-05-13T18:48:15.976Z,39.94
2023-05-13T18:50:39.555Z,39.51
2023-05-13T18:53:03.139Z,39.99
2023-05-13T18:55:26.785Z,40.85
2023-05-13T18:57:50.752Z,41.20
2023-05-13T19:00:17.832Z,42.46
2023-05-13T19:02:41.725Z,41.53
2023-05-13T19:05:06.540Z,42.58
2023-05-13T19:07:30.129Z,41.42
2023-05-13T19:09:53.723Z,41.43
2023-05-13T19:12:17.263Z,42.35
2023-05-13T19:14:40.872Z,42.45
2023-05-13T19:17:06.431Z,42.87
2023-05-13T19:19:30.172Z,43.21
2023-05-13T19:21:53.682Z,42.90
2023-05-13T19:24:17.249Z,43.21
2023-05-13T19:26:41.050Z,43.89
2023-05-13T19:29:04.931Z,43.83
2023-05-13T19:31:28.638Z,43.66
2023-05-13T19:33:53.656Z,44.36
2023-05-13T19:36:17.190Z,44.42
2023-05-13T19:38:40.845Z,44.97
2023-05-13T19:41:04.711Z,44.85
2023-05-13T19:43:28.387Z,45.39
2023-05-13T19:45:52.259Z,45.43
2023-05-13T19:48:15.890Z,45.69
2023-05-13T19:50:41.665Z,45.81
2023-05-13T19:53:05.292Z,46.39
2023-05-13T19:55:28.969Z,46.96
2023-05-13T19:57:53.037Z,47.24
2023-05-13T20:00:17.299Z,47.75
2023-05-13T20:02:41.289Z,47.12
2023-05-13T20:05:06.200Z,47.58
2023-05-13T20:07:31.225Z,47.56
2023-05-13T20:09:54.758Z,48.34
2023-05-13T20:12:18.646Z,48.04
2023-05-13T20:14:47.059Z,47.93
2023-05-13T20:17:11.199Z,48.73
2023-05-13T20:19:34.777Z,48.82
2023-05-13T20:21:58.359Z,49.13
2023-05-13T20:24:23.287Z,49.52
2023-05-13T20:26:46.849Z,49.69
2023-05-13T20:29:12.562Z,50.20
2023-05-13T20:31:36.198Z,50.19
2023-05-13T20:34:00.387Z,51.68
2023-05-13T20:36:24.054Z,50.79
2023-05-13T20:38:47.783Z,51.29
2023-05-13T20:41:12.807Z,51.23
2023-05-13T20:43:37.038Z,51.74
2023-05-13T20:46:00.659Z,52.43
2023-05-13T20:48:24.315Z,52.04
2023-05-13T20:50:47.894Z,52.51
2023-05-13T20:53:11.476Z,53.11
2023-05-13T20:55:35.103Z,53.09
2023-05-13T20:58:00.051Z,52.92
2023-05-13T21:00:24.297Z,53.29
2023-05-13T21:02:48.826Z,53.48
2023-05-13T21:05:12.944Z,53.45
2023-05-13T21:07:37.178Z,53.89
2023-05-13T21:10:00.800Z,54.64
2023-05-13T21:12:25.152Z,54.56
2023-05-13T21:14:50.211Z,54.79
2023-05-13T21:17:13.733Z,54.60
2023-05-13T21:19:37.418Z,55.13
2023-05-13T21:22:01.680Z,55.95
2023-05-13T21:24:25.306Z,56.15
2023-05-13T21:26:49.845Z,55.71
2023-05-13T21:29:13.498Z,56.49
2023-05-13T21:31:38.519Z,56.29
2023-05-13T21:34:02.208Z,57.41
2023-05-13T21:36:25.774Z,56.80
2023-05-13T21:38:49.350Z,57.39
2023-05-13T21:41:12.961Z,57.50
2023-05-13T21:43:36.567Z,57.77
2023-05-13T21:46:00.120Z,56.81
2023-05-13T21:48:25.139Z,57.88
2023-05-13T21:50:48.754Z,57.62
2023-05-13T21:53:12.352Z,58.13
2023-05-13T21:55:35.904Z,58.56
2023-05-13T21:57:59.475Z,58.47
2023-05-13T22:00:23.251Z,59.68
2023-05-13T22:02:47.220Z,59.66
2023-05-13T22:05:13.071Z,59.62
2023-05-13T22:07:36.765Z,61.82
2023-05-13T22:10:00.295Z,60.37
2023-05-13T22:12:24.122Z,59.16
2023-05-13T22:14:47.645Z,60.67
2023-05-13T22:17:11.340Z,62.01
2023-05-13T22:19:36.119Z,61.21
2023-05-13T22:22:01.216Z,59.96
2023-05-13T22:24:24.726Z,60.22
2023-05-13T22:26:48.341Z,61.39
2023-05-13T22:29:11.857Z,61.12
2023-05-13T22:31:35.548Z,61.58
2023-05-13T22:33:59.152Z,61.24
2023-05-13T22:36:22.804Z,61.61
2023-05-13T22:38:47.769Z,61.57
2023-05-13T22:41:13.698Z,61.03
2023-05-13T22:43:37.237Z,61.21
2023-05-13T22:46:00.965Z,61.64
2023-05-13T22:48:24.508Z,61.54
2023-05-13T22:50:48.372Z,61.62
2023-05-13T22:53:11.891Z,61.86
2023-05-13T22:55:36.920Z,62.34
2023-05-13T22:58:00.535Z,62.40
2023-05-13T23:00:24.488Z,64.18
2023-05-13T23:02:48.215Z,62.78
2023-05-13T23:05:12.308Z,62.06
2023-05-13T23:07:35.853Z,62.94
2023-05-13T23:09:59.559Z,64.62
2023-05-13T23:12:24.450Z,62.94
2023-05-13T23:14:48.049Z,64.08
2023-05-13T23:17:11.570Z,62.70
2023-05-13T23:19:35.272Z,63.81
2023-05-13T23:21:58.961Z,62.92
2023-05-13T23:24:22.659Z,63.57
2023-05-13T23:26:47.564Z,62.77
2023-05-13T23:29:12.603Z,64.02
2023-05-13T23:31:36.329Z,63.22
2023-05-13T23:33:59.961Z,63.35
2023-05-13T23:36:23.488Z,64.19
2023-05-13T23:38:47.091Z,63.99
2023-05-13T23:41:10.598Z,63.86
2023-05-13T23:43:34.227Z,63.76
2023-05-13T23:45:59.186Z,64.57
2023-05-13T23:48:22.778Z,64.01
2023-05-13T23:50:46.288Z,64.97
2023-05-13T23:53:09.905Z,64.73
2023-05-13T23:55:33.421Z,64.02
2023-05-13T23:57:57.254Z,64.09
